createdAt,value
2017-09-30T00:02:25.071Z,30.67
2017-09-30T00:04:53.157Z,29.73
2017-09-30T00:07:21.239Z,27.67
2017-09-30T00:09:49.327Z,30.83
2017-09-30T00:12:17.403Z,28.60
2017-09-30T00:14:46.183Z,33.87
2017-09-30T00:17:14.264Z,31.03
2017-09-30T00:19:42.380Z,32.70
2017-09-30T00:22:10.476Z,31.77
2017-09-30T00:24:38.567Z,33.63
2017-09-30T00:27:06.646Z,33.37
2017-09-30T00:29:34.724Z,33.57
2017-09-30T00:32:02.803Z,28.90
2017-09-30T00:34:31.651Z,30.13
2017-09-30T00:36:59.736Z,30.83
2017-09-30T00:39:27.807Z,30.43
2017-09-30T00:41:55.892Z,28.27
2017-09-30T00:44:23.974Z,28.90
2017-09-30T00:46:52.069Z,27.20
2017-09-30T00:49:20.911Z,28.50
2017-09-30T00:51:49.000Z,29.47
2017-09-30T00:54:17.099Z,27.53
2017-09-30T00:56:45.968Z,27.13
2017-09-30T00:59:14.036Z,27.97
2017-09-30T01:01:42.128Z,30.03
2017-09-30T01:04:11.197Z,31.53
2017-09-30T01:06:39.280Z,32.40
2017-09-30T01:09:07.366Z,35.53
2017-09-30T01:11:35.442Z,35.70
2017-09-30T01:14:04.375Z,32.77
2017-09-30T01:16:32.465Z,30.40
2017-09-30T01:19:01.312Z,30.30
2017-09-30T01:21:30.165Z,31.23
2017-09-30T01:23:58.240Z,32.00
2017-09-30T01:26:26.344Z,30.60
2017-09-30T01:28:54.453Z,29.00
2017-09-30T01:31:23.287Z,28.73
2017-09-30T01:33:51.395Z,27.97
2017-09-30T01:36:19.483Z,30.03
2017-09-30T01:38:47.564Z,31.40
2017-09-30T01:41:15.656Z,31.07
2017-09-30T01:43:43.732Z,31.40
2017-09-30T01:46:11.814Z,31.90
2017-09-30T01:48:39.887Z,34.83
2017-09-30T01:51:07.975Z,32.53
2017-09-30T01:53:36.051Z,33.60
2017-09-30T01:56:04.145Z,32.30
2017-09-30T01:58:32.979Z,35.07
2017-09-30T02:01:01.089Z,34.60
2017-09-30T02:03:29.931Z,33.53
2017-09-30T02:05:58.021Z,39.13
2017-09-30T02:08:26.096Z,36.40
2017-09-30T02:10:54.179Z,39.10
2017-09-30T02:13:22.251Z,37.87
2017-09-30T02:15:50.326Z,39.07
2017-09-30T02:18:18.403Z,40.40
2017-09-30T02:20:46.481Z,39.33
2017-09-30T02:23:14.576Z,37.87
2017-09-30T02:25:43.416Z,42.83
2017-09-30T02:28:11.507Z,39.47
2017-09-30T02:30:39.613Z,42.80
2017-09-30T02:33:08.457Z,37.77
2017-09-30T02:35:36.532Z,34.03
2017-09-30T02:38:04.612Z,37.83
2017-09-30T02:40:32.698Z,43.50
2017-09-30T02:43:01.548Z,39.37
2017-09-30T02:45:29.636Z,40.33
2017-09-30T02:47:57.719Z,42.17
2017-09-30T02:50:25.804Z,42.00
2017-09-30T02:52:53.874Z,40.30
2017-09-30T02:55:21.956Z,44.57
2017-09-30T02:57:50.023Z,46.37
2017-09-30T03:00:18.104Z,45.43
2017-09-30T03:02:46.951Z,55.57
2017-09-30T03:05:15.031Z,54.03
2017-09-30T03:07:43.119Z,44.93
2017-09-30T03:10:11.199Z,49.50
2017-09-30T03:12:39.287Z,46.60
2017-09-30T03:15:08.135Z,41.23
2017-09-30T03:17:36.215Z,52.77
2017-09-30T03:20:04.304Z,46.03
2017-09-30T03:22:32.396Z,39.00
2017-09-30T03:25:01.234Z,54.40
2017-09-30T03:27:29.313Z,54.13
2017-09-30T03:29:58.154Z,50.33
2017-09-30T03:32:26.999Z,72.67
2017-09-30T03:34:55.089Z,68.63
2017-09-30T03:37:23.163Z,79.90
2017-09-30T03:39:51.251Z,48.30
2017-09-30T03:42:19.336Z,49.27
2017-09-30T03:44:49.134Z,48.77
2017-09-30T03:47:17.203Z,49.07
2017-09-30T03:49:45.293Z,51.77
2017-09-30T03:52:14.144Z,61.20
2017-09-30T03:54:42.237Z,58.93
2017-09-30T03:57:11.107Z,53.13
2017-09-30T03:59:39.187Z,45.87
2017-09-30T04:02:07.263Z,50.10
2017-09-30T04:04:35.357Z,160.03
2017-09-30T04:07:04.216Z,62.07
2017-09-30T04:09:32.283Z,44.90
2017-09-30T04:12:00.379Z,43.40
2017-09-30T04:14:28.448Z,45.63
2017-09-30T04:16:56.561Z,69.37
2017-09-30T04:19:24.639Z,49.03
2017-09-30T04:21:52.732Z,66.07
2017-09-30T04:24:21.588Z,115.17
2017-09-30T04:26:50.443Z,58.90
2017-09-30T04:29:18.532Z,56.77
2017-09-30T04:31:46.596Z,59.30
2017-09-30T04:34:14.697Z,61.10
2017-09-30T04:36:43.545Z,56.03
2017-09-30T04:39:11.631Z,61.80
2017-09-30T04:41:39.931Z,95.40
2017-09-30T04:44:08.787Z,257.23
2017-09-30T04:46:36.867Z,293.20
2017-09-30T04:49:04.966Z,113.20
2017-09-30T04:51:33.815Z,217.20
2017-09-30T04:54:01.903Z,93.17
2017-09-30T04:56:29.989Z,129.80
2017-09-30T04:58:58.089Z,163.83
2017-09-30T05:01:26.936Z,116.97
2017-09-30T05:03:55.043Z,445.93
2017-09-30T05:06:23.895Z,221.53
2017-09-30T05:08:51.987Z,106.00
2017-09-30T05:11:20.095Z,247.07
2017-09-30T05:13:48.167Z,86.87
2017-09-30T05:16:16.261Z,122.90
2017-09-30T05:18:44.337Z,57.27
2017-09-30T05:21:12.427Z,55.73
2017-09-30T05:23:40.499Z,54.70
2017-09-30T05:26:08.592Z,44.27
2017-09-30T05:28:36.719Z,42.47
2017-09-30T05:31:05.579Z,43.70
2017-09-30T05:33:34.442Z,44.17
2017-09-30T05:36:02.532Z,35.97
2017-09-30T05:38:31.380Z,45.23
2017-09-30T05:40:59.472Z,40.90
2017-09-30T05:43:27.547Z,44.17
2017-09-30T05:45:55.634Z,52.63
2017-09-30T05:48:23.733Z,44.70
2017-09-30T05:50:52.601Z,38.27
2017-09-30T05:53:20.679Z,52.03
2017-09-30T05:55:49.539Z,81.87
2017-09-30T05:58:17.632Z,71.67
2017-09-30T06:00:45.710Z,70.30
2017-09-30T06:03:13.792Z,60.40
2017-09-30T06:05:42.650Z,54.67
2017-09-30T06:08:10.734Z,44.63
2017-09-30T06:10:38.819Z,46.90
2017-09-30T06:13:06.907Z,42.80
2017-09-30T06:15:35.755Z,52.93
2017-09-30T06:18:03.831Z,42.77
2017-09-30T06:20:31.911Z,36.70
2017-09-30T06:22:59.992Z,40.30
2017-09-30T06:25:28.070Z,38.97
2017-09-30T06:27:56.148Z,36.90
2017-09-30T06:30:25.007Z,35.53
2017-09-30T06:32:53.079Z,36.50
2017-09-30T06:35:21.173Z,36.40
2017-09-30T06:37:49.251Z,35.30
2017-09-30T06:40:17.328Z,37.07
2017-09-30T06:42:45.404Z,38.80
2017-09-30T06:45:13.595Z,39.10
2017-09-30T06:47:42.435Z,41.40
2017-09-30T06:50:10.523Z,41.50
2017-09-30T06:52:38.596Z,48.83
2017-09-30T06:55:06.679Z,49.90
2017-09-30T06:57:34.758Z,51.73
2017-09-30T07:00:02.835Z,51.57
2017-09-30T07:02:31.694Z,58.17
2017-09-30T07:04:59.776Z,65.73
2017-09-30T07:07:27.859Z,60.10
2017-09-30T07:09:55.931Z,67.17
2017-09-30T07:12:24.025Z,59.10
2017-09-30T07:14:52.871Z,61.53
2017-09-30T07:17:20.962Z,51.33
2017-09-30T07:19:49.031Z,51.23
2017-09-30T07:22:17.116Z,45.27
2017-09-30T07:24:45.604Z,41.60
2017-09-30T07:27:13.703Z,36.03
2017-09-30T07:29:41.809Z,37.10
2017-09-30T07:32:09.891Z,43.40
2017-09-30T07:34:37.963Z,43.93
2017-09-30T07:37:06.051Z,43.33
2017-09-30T07:39:34.135Z,37.80
2017-09-30T07:42:02.224Z,45.60
2017-09-30T07:44:31.072Z,45.13
2017-09-30T07:46:59.167Z,41.93
2017-09-30T07:49:27.239Z,41.27
2017-09-30T07:51:55.324Z,40.00
2017-09-30T07:54:24.926Z,36.87
2017-09-30T07:56:53.015Z,38.97
2017-09-30T07:59:21.959Z,40.60
2017-09-30T08:01:50.060Z,39.97
2017-09-30T08:04:18.136Z,38.93
2017-09-30T08:06:46.211Z,35.13
2017-09-30T08:09:14.283Z,38.40
2017-09-30T08:11:42.376Z,36.60
2017-09-30T08:14:11.216Z,34.87
2017-09-30T08:16:39.304Z,34.57
2017-09-30T08:19:07.392Z,34.93
2017-09-30T08:21:35.484Z,38.60
2017-09-30T08:24:04.332Z,35.20
2017-09-30T08:26:32.416Z,34.90
2017-09-30T08:29:00.497Z,37.70
2017-09-30T08:31:28.595Z,32.97
2017-09-30T08:33:56.684Z,32.80
2017-09-30T08:36:24.777Z,33.30
2017-09-30T08:38:52.843Z,34.07
2017-09-30T08:41:20.923Z,36.50
2017-09-30T08:43:49.009Z,35.63
2017-09-30T08:46:17.095Z,35.20
2017-09-30T08:48:45.876Z,34.17
2017-09-30T08:51:13.964Z,35.60
2017-09-30T08:53:42.039Z,33.00
2017-09-30T08:56:10.123Z,34.97
2017-09-30T08:58:38.975Z,33.50
2017-09-30T09:01:07.068Z,32.17
2017-09-30T09:03:35.149Z,32.63
2017-09-30T09:06:03.235Z,32.27
2017-09-30T09:08:32.087Z,31.03
2017-09-30T09:11:00.171Z,31.10
2017-09-30T09:13:28.246Z,30.87
2017-09-30T09:15:56.401Z,32.40
2017-09-30T09:18:24.480Z,31.50
2017-09-30T09:20:52.575Z,32.87
2017-09-30T09:23:20.685Z,33.20
2017-09-30T09:25:48.772Z,32.70
2017-09-30T09:28:16.864Z,32.23
2017-09-30T09:30:44.972Z,30.53
2017-09-30T09:33:13.053Z,31.20
2017-09-30T09:35:41.891Z,32.50
2017-09-30T09:38:09.980Z,32.63
2017-09-30T09:40:38.074Z,34.30
2017-09-30T09:43:06.150Z,35.07
2017-09-30T09:45:34.223Z,32.17
2017-09-30T09:48:02.307Z,32.83
2017-09-30T09:50:31.159Z,42.20
2017-09-30T09:52:59.249Z,33.43
2017-09-30T09:55:27.327Z,31.97
2017-09-30T09:57:55.411Z,33.20
2017-09-30T10:00:24.259Z,30.73
2017-09-30T10:02:52.340Z,29.47
2017-09-30T10:05:20.418Z,24.63
2017-09-30T10:07:48.504Z,29.73
2017-09-30T10:10:16.583Z,21.40
2017-09-30T10:12:44.667Z,21.47
2017-09-30T10:15:13.507Z,21.33
2017-09-30T10:17:42.366Z,19.37
2017-09-30T10:20:11.222Z,19.13
2017-09-30T10:22:39.360Z,19.37
2017-09-30T10:25:07.436Z,20.00
2017-09-30T10:27:35.548Z,19.23
2017-09-30T10:30:03.610Z,18.87
2017-09-30T10:32:31.693Z,17.90
2017-09-30T10:35:00.856Z,18.53
2017-09-30T10:37:28.940Z,19.07
2017-09-30T10:39:57.028Z,18.77
2017-09-30T10:42:25.109Z,18.63
2017-09-30T10:44:53.183Z,18.00
2017-09-30T10:47:21.269Z,20.77
2017-09-30T10:49:50.107Z,20.83
2017-09-30T10:52:18.225Z,17.93
2017-09-30T10:54:47.082Z,18.50
2017-09-30T10:57:15.156Z,18.20
2017-09-30T10:59:43.231Z,18.47
2017-09-30T11:02:11.329Z,18.80
2017-09-30T11:04:39.400Z,17.93
2017-09-30T11:07:07.479Z,19.00
2017-09-30T11:09:35.556Z,24.30
2017-09-30T11:12:03.644Z,19.07
2017-09-30T11:14:32.484Z,19.00
2017-09-30T11:17:00.568Z,18.20
2017-09-30T11:19:28.640Z,19.27
2017-09-30T11:21:56.727Z,19.40
2017-09-30T11:24:24.800Z,18.00
2017-09-30T11:26:54.129Z,19.47
2017-09-30T11:29:22.958Z,20.73
2017-09-30T11:31:51.035Z,18.57
2017-09-30T11:34:19.117Z,20.50
2017-09-30T11:36:47.195Z,20.43
2017-09-30T11:39:15.268Z,20.43
2017-09-30T11:41:43.351Z,19.60
2017-09-30T11:44:11.423Z,22.23
2017-09-30T11:46:39.500Z,18.53
2017-09-30T11:49:07.585Z,20.53
2017-09-30T11:51:36.431Z,18.93
2017-09-30T11:54:04.509Z,19.23
2017-09-30T11:56:32.600Z,18.90
2017-09-30T11:59:00.675Z,33.73
2017-09-30T12:01:28.975Z,19.40
2017-09-30T12:03:57.813Z,22.77
2017-09-30T12:06:25.912Z,21.10
2017-09-30T12:08:53.974Z,18.80
2017-09-30T12:11:22.067Z,19.70
2017-09-30T12:13:50.135Z,20.73
2017-09-30T12:16:18.208Z,19.40
2017-09-30T12:18:46.291Z,19.10
2017-09-30T12:21:14.372Z,19.77
2017-09-30T12:23:43.216Z,19.87
2017-09-30T12:26:11.297Z,20.00
2017-09-30T12:28:39.378Z,19.97
2017-09-30T12:31:07.448Z,20.50
2017-09-30T12:33:35.541Z,22.20
2017-09-30T12:36:03.607Z,19.87
2017-09-30T12:38:31.686Z,20.67
2017-09-30T12:41:00.534Z,20.27
2017-09-30T12:43:28.610Z,22.43
2017-09-30T12:45:56.693Z,20.33
2017-09-30T12:48:50.176Z,17.13
2017-09-30T12:51:19.068Z,17.63
2017-09-30T12:53:47.164Z,18.03
2017-09-30T12:56:16.063Z,15.40
2017-09-30T12:58:44.916Z,17.40
2017-09-30T13:01:12.996Z,16.97
2017-09-30T13:03:41.085Z,18.67
2017-09-30T13:06:09.943Z,22.20
2017-09-30T13:08:38.028Z,15.20
2017-09-30T13:11:06.714Z,14.80
2017-09-30T13:13:34.802Z,19.60
2017-09-30T13:16:02.887Z,13.90
2017-09-30T13:18:31.735Z,15.90
2017-09-30T13:20:59.827Z,14.37
2017-09-30T13:23:27.902Z,16.80
2017-09-30T13:25:56.007Z,17.10
2017-09-30T13:28:24.078Z,15.13
2017-09-30T13:30:52.151Z,13.20
2017-09-30T13:33:21.011Z,14.07
2017-09-30T13:35:49.087Z,13.57
2017-09-30T13:38:17.176Z,14.87
2017-09-30T13:40:46.028Z,14.20
2017-09-30T13:43:14.110Z,20.33
2017-09-30T13:45:42.184Z,14.77
2017-09-30T13:48:10.263Z,14.20
2017-09-30T13:50:38.344Z,16.33
2017-09-30T13:53:06.418Z,14.53
2017-09-30T13:55:34.496Z,14.77
2017-09-30T13:58:02.580Z,18.40
2017-09-30T14:00:31.423Z,13.93
2017-09-30T14:02:59.499Z,15.67
2017-09-30T14:05:28.468Z,15.53
2017-09-30T14:07:56.556Z,14.83
2017-09-30T14:10:24.639Z,16.13
2017-09-30T14:12:52.734Z,15.00
2017-09-30T14:15:20.803Z,14.17
2017-09-30T14:17:48.876Z,16.07
2017-09-30T14:20:16.947Z,16.07
2017-09-30T14:22:45.039Z,18.77
2017-09-30T14:25:13.909Z,15.00
2017-09-30T14:27:41.986Z,15.80
2017-09-30T14:30:10.068Z,16.97
2017-09-30T14:32:38.924Z,16.00
2017-09-30T14:35:07.003Z,15.53
2017-09-30T14:37:35.100Z,14.83
2017-09-30T14:40:03.181Z,17.00
2017-09-30T14:42:32.051Z,14.63
2017-09-30T14:45:00.124Z,15.37
2017-09-30T14:47:28.212Z,18.10
2017-09-30T14:49:57.058Z,16.20
2017-09-30T14:52:25.140Z,14.70
2017-09-30T14:54:54.146Z,14.40
2017-09-30T14:57:22.240Z,15.20
2017-09-30T14:59:50.315Z,16.37
2017-09-30T15:02:19.172Z,13.93
2017-09-30T15:04:47.263Z,16.23
2017-09-30T15:07:15.347Z,16.47
2017-09-30T15:09:43.424Z,14.70
2017-09-30T15:12:11.536Z,14.77
2017-09-30T15:14:39.666Z,15.37
2017-09-30T15:17:07.735Z,13.50
2017-09-30T15:19:35.825Z,14.63
2017-09-30T15:22:04.664Z,14.33
2017-09-30T15:24:32.753Z,14.30
2017-09-30T15:27:00.832Z,15.83
2017-09-30T15:29:28.928Z,16.40
2017-09-30T15:31:57.823Z,12.90
2017-09-30T15:34:26.683Z,13.57
2017-09-30T15:36:54.771Z,13.53
2017-09-30T15:39:22.856Z,14.07
2017-09-30T15:41:51.721Z,13.10
2017-09-30T15:44:19.808Z,14.17
2017-09-30T15:46:47.879Z,15.00
2017-09-30T15:49:15.970Z,12.87
2017-09-30T15:51:44.816Z,11.83
2017-09-30T15:54:18.777Z,14.40
2017-09-30T15:56:47.631Z,17.50
2017-09-30T15:59:15.704Z,13.67
2017-09-30T16:01:43.787Z,12.60
2017-09-30T16:04:11.869Z,13.93
2017-09-30T16:06:39.943Z,13.97
2017-09-30T16:09:08.023Z,14.03
2017-09-30T16:11:36.872Z,14.13
2017-09-30T16:14:04.957Z,20.50
2017-09-30T16:16:33.504Z,13.83
2017-09-30T16:19:01.597Z,17.77
2017-09-30T16:21:29.687Z,15.70
2017-09-30T16:23:57.803Z,14.23
2017-09-30T16:26:25.916Z,14.87
2017-09-30T16:28:53.998Z,17.87
2017-09-30T16:31:22.084Z,16.17
2017-09-30T16:33:50.155Z,19.67
2017-09-30T16:36:18.223Z,16.00
2017-09-30T16:38:46.307Z,16.93
2017-09-30T16:41:14.384Z,18.10
2017-09-30T16:43:42.463Z,25.10
2017-09-30T16:46:11.303Z,24.33
2017-09-30T16:48:39.496Z,31.73
2017-09-30T16:51:07.593Z,20.03
2017-09-30T16:53:35.675Z,17.37
2017-09-30T16:56:04.756Z,17.27
2017-09-30T16:58:32.844Z,15.67
2017-09-30T17:01:01.687Z,17.17
2017-09-30T17:03:29.777Z,20.43
2017-09-30T17:05:57.849Z,18.33
2017-09-30T17:08:25.940Z,18.40
2017-09-30T17:10:54.015Z,25.67
2017-09-30T17:13:22.100Z,22.53
2017-09-30T17:15:50.951Z,20.37
2017-09-30T17:18:19.034Z,16.80
2017-09-30T17:20:47.123Z,19.57
2017-09-30T17:23:15.212Z,25.90
2017-09-30T17:25:44.046Z,33.30
2017-09-30T17:28:12.894Z,21.93
2017-09-30T17:30:41.743Z,73.43
2017-09-30T17:33:09.839Z,22.43
2017-09-30T17:35:37.919Z,23.53
2017-09-30T17:38:06.791Z,23.23
2017-09-30T17:40:34.864Z,25.73
2017-09-30T17:43:02.964Z,20.10
2017-09-30T17:45:31.823Z,21.07
2017-09-30T17:47:59.899Z,24.43
2017-09-30T17:50:28.663Z,21.10
2017-09-30T17:52:56.787Z,23.00
2017-09-30T17:55:25.660Z,24.07
2017-09-30T17:57:53.754Z,21.00
2017-09-30T18:00:22.748Z,22.70
2017-09-30T18:02:51.614Z,26.77
2017-09-30T18:05:19.695Z,22.60
2017-09-30T18:07:47.781Z,20.93
2017-09-30T18:10:16.636Z,21.83
2017-09-30T18:12:44.703Z,21.53
2017-09-30T18:15:12.795Z,20.03
2017-09-30T18:17:40.874Z,27.57
2017-09-30T18:20:08.962Z,23.37
2017-09-30T18:22:37.864Z,25.90
2017-09-30T18:25:06.715Z,22.70
2017-09-30T18:27:34.803Z,31.20
2017-09-30T18:30:02.887Z,27.60
2017-09-30T18:32:31.744Z,23.00
2017-09-30T18:34:59.816Z,32.07
2017-09-30T18:37:27.908Z,23.97
2017-09-30T18:39:55.987Z,18.93
2017-09-30T18:42:24.071Z,18.50
2017-09-30T18:44:52.911Z,19.17
2017-09-30T18:47:20.998Z,18.17
2017-09-30T18:49:49.153Z,18.40
2017-09-30T18:52:17.248Z,18.20
2017-09-30T18:54:46.071Z,23.57
2017-09-30T18:57:14.933Z,91.23
2017-09-30T18:59:43.011Z,73.07
2017-09-30T19:02:11.108Z,49.17
2017-09-30T19:04:40.002Z,29.33
2017-09-30T19:07:08.851Z,24.00
2017-09-30T19:09:36.939Z,36.03
2017-09-30T19:12:05.026Z,27.53
2017-09-30T19:14:33.108Z,24.00
2017-09-30T19:17:01.948Z,27.13
2017-09-30T19:19:30.038Z,23.00
2017-09-30T19:21:58.115Z,41.37
2017-09-30T19:24:26.202Z,29.90
2017-09-30T19:26:54.288Z,28.93
2017-09-30T19:29:23.149Z,23.00
2017-09-30T19:31:51.223Z,22.20
2017-09-30T19:34:19.415Z,27.30
2017-09-30T19:36:47.488Z,25.67
2017-09-30T19:39:15.565Z,28.27
2017-09-30T19:41:43.691Z,40.97
2017-09-30T19:44:11.772Z,60.33
2017-09-30T19:46:39.856Z,62.87
2017-09-30T19:49:07.926Z,33.90
2017-09-30T19:51:36.011Z,47.53
2017-09-30T19:54:04.105Z,27.73
2017-09-30T19:56:32.188Z,54.50
2017-09-30T19:59:01.036Z,93.77
2017-09-30T20:01:29.140Z,419.70
2017-09-30T20:03:57.202Z,49.17
2017-09-30T20:06:25.287Z,64.93
2017-09-30T20:08:54.141Z,73.63
2017-09-30T20:11:22.240Z,31.20
2017-09-30T20:13:50.312Z,37.13
2017-09-30T20:16:18.380Z,27.37
2017-09-30T20:18:46.463Z,38.40
2017-09-30T20:21:14.539Z,33.90
2017-09-30T20:23:42.635Z,152.20
2017-09-30T20:26:10.725Z,143.90
2017-09-30T20:28:38.814Z,174.50
2017-09-30T20:31:06.904Z,98.80
2017-09-30T20:33:35.000Z,306.53
2017-09-30T20:36:03.079Z,218.93
2017-09-30T20:38:31.934Z,139.70
2017-09-30T20:41:00.168Z,129.97
2017-09-30T20:43:28.263Z,15.80
2017-09-30T20:45:56.344Z,21.60
2017-09-30T20:48:24.429Z,18.63
2017-09-30T20:50:52.520Z,16.43
2017-09-30T20:53:20.587Z,16.03
2017-09-30T20:55:48.683Z,19.10
2017-09-30T20:58:17.524Z,30.43
2017-09-30T21:00:45.611Z,15.40
2017-09-30T21:03:13.680Z,7.77
2017-09-30T21:05:41.779Z,14.30
2017-09-30T21:08:09.843Z,8.10
2017-09-30T21:10:37.906Z,9.97
2017-09-30T21:13:05.983Z,4.10
2017-09-30T21:15:34.043Z,6.10
2017-09-30T21:18:02.128Z,17.50
2017-09-30T21:20:30.199Z,13.90
2017-09-30T21:22:58.286Z,10.50
2017-09-30T21:25:26.349Z,5.60
2017-09-30T21:27:54.424Z,5.73
2017-09-30T21:30:22.490Z,5.03
2017-09-30T21:32:50.576Z,5.50
2017-09-30T21:35:18.648Z,4.80
2017-09-30T21:37:46.719Z,6.00
2017-09-30T21:40:14.792Z,4.23
2017-09-30T21:42:42.873Z,8.43
2017-09-30T21:45:10.947Z,3.63
2017-09-30T21:47:39.792Z,4.47
2017-09-30T21:50:07.871Z,3.70
2017-09-30T21:52:35.955Z,3.83
2017-09-30T21:55:04.023Z,4.50
2017-09-30T21:57:32.090Z,5.30
2017-09-30T22:00:00.168Z,8.43
2017-09-30T22:02:28.232Z,5.23
2017-09-30T22:04:56.311Z,8.17
2017-09-30T22:07:24.380Z,14.57
2017-09-30T22:09:52.467Z,18.13
2017-09-30T22:12:20.543Z,10.47
2017-09-30T22:14:48.627Z,14.40
2017-09-30T22:17:16.695Z,19.93
2017-09-30T22:19:44.776Z,23.97
2017-09-30T22:22:12.840Z,8.13
2017-09-30T22:24:40.915Z,8.50
2017-09-30T22:27:09.003Z,5.93
2017-09-30T22:29:37.847Z,4.73
2017-09-30T22:32:05.919Z,6.73
2017-09-30T22:34:34.011Z,3.40
2017-09-30T22:37:02.095Z,4.00
2017-09-30T22:39:30.171Z,3.30
2017-09-30T22:41:59.381Z,3.97
2017-09-30T22:44:28.229Z,6.40
2017-09-30T22:46:56.299Z,5.77
2017-09-30T22:49:24.452Z,4.77
2017-09-30T22:51:52.529Z,6.00
2017-09-30T22:54:20.618Z,4.10
2017-09-30T22:56:49.509Z,5.30
2017-09-30T22:59:17.584Z,6.80
2017-09-30T23:01:45.659Z,4.83
2017-09-30T23:04:13.733Z,7.70
2017-09-30T23:06:41.920Z,27.00
2017-09-30T23:09:09.983Z,5.93
2017-09-30T23:11:38.069Z,5.50
2017-09-30T23:14:06.138Z,5.10
2017-09-30T23:16:34.272Z,3.97
2017-09-30T23:19:02.351Z,3.57
2017-09-30T23:21:30.423Z,4.30
2017-09-30T23:23:58.495Z,8.07
2017-09-30T23:26:26.575Z,4.63
2017-09-30T23:28:55.405Z,4.80
2017-09-30T23:31:23.481Z,8.63
2017-09-30T23:33:51.557Z,4.40
2017-09-30T23:36:19.631Z,6.60
2017-09-30T23:38:48.471Z,6.33
2017-09-30T23:41:16.559Z,5.60
2017-09-30T23:43:44.644Z,9.00
2017-09-30T23:46:12.739Z,3.80
2017-09-30T23:48:40.807Z,3.40
2017-09-30T23:51:08.891Z,5.30
2017-09-30T23:53:37.740Z,3.30
2017-09-30T23:56:05.824Z,3.40
2017-09-30T23:58:33.899Z,5.53
